Terminal Aerodrome Forecast
Issued by NWS

Current Version | Previous Version | Text Only | Print | Product List | Glossary On
Versions: 1 2 3 4 5 6 7 8 9 10 11 12 13 14 15 16
000
FTUS43 KBIS 240537
TAFJMS
TAF
KJMS 240537Z 2406/2506 20006KT P6SM SKC
     FM241800 18010KT 4SM -SN SCT025 OVC035
     FM242000 17010KT 1 1/2SM -SN BR OVC008
     FM250100 15005KT P6SM OVC008
     FM250400 21004KT P6SM BKN050=

USA.gov is the U.S. government's official web portal to all federal, state and local government web resources and services.